createdAt,value
2018-07-01T14:24:28.878Z,20.8
2018-07-01T14:24:49.236Z,20.8
2018-07-01T14:25:09.622Z,20.8
2018-07-01T14:25:29.952Z,20.8
2018-07-01T14:25:51.177Z,20.8
2018-07-01T14:26:11.714Z,20.7
2018-07-01T14:26:31.948Z,20.8
2018-07-01T14:26:52.292Z,20.8
2018-07-01T14:27:13.091Z,20.7
2018-07-01T14:27:33.266Z,20.8
2018-07-01T14:27:53.727Z,20.7
2018-07-01T14:28:14.169Z,20.8
2018-07-01T14:28:34.717Z,20.7
2018-07-01T14:28:55.224Z,20.7
2018-07-01T14:29:15.661Z,20.7
2018-07-01T14:29:36.284Z,20.8
2018-07-01T14:29:56.616Z,20.8
2018-07-01T14:30:17.024Z,20.8
2018-07-01T14:30:37.801Z,20.8
2018-07-01T14:30:58.306Z,20.9
2018-07-01T14:31:18.549Z,20.9
2018-07-01T14:31:38.805Z,20.8
2018-07-01T14:31:59.253Z,21
2018-07-01T14:32:20.236Z,21
2018-07-01T14:32:40.708Z,21
2018-07-01T14:33:00.968Z,21.1
2018-07-01T14:33:22.177Z,21.2
2018-07-01T14:33:42.614Z,21.2
2018-07-01T14:34:02.989Z,21.3
2018-07-01T14:34:23.402Z,21.3
2018-07-01T14:34:43.862Z,21.3
2018-07-01T14:35:04.262Z,21.3
2018-07-01T14:35:24.764Z,21.4
2018-07-01T14:35:45.419Z,21.3
2018-07-01T14:36:05.729Z,21.4
2018-07-01T14:36:25.985Z,21.3
2018-07-01T14:36:46.455Z,21.3
2018-07-01T14:37:07.003Z,21.2
2018-07-01T14:37:27.462Z,21.2
2018-07-01T14:37:47.763Z,21.1
2018-07-01T14:38:08.568Z,21.1
2018-07-01T14:38:30.656Z,21.1
2018-07-01T14:38:51.320Z,21.2
2018-07-01T14:39:12.422Z,21.1
2018-07-01T14:39:32.395Z,21.1
2018-07-01T14:39:52.678Z,21.1
2018-07-01T14:40:13.107Z,21.2
2018-07-01T14:40:33.308Z,21.1
2018-07-01T14:40:54.204Z,21.2
2018-07-01T14:41:14.505Z,21.1
2018-07-01T14:41:34.756Z,21.2
2018-07-01T14:41:55.125Z,21.2
2018-07-01T14:42:15.593Z,21.2
2018-07-01T14:42:35.765Z,21.2
2018-07-01T14:42:56.063Z,21.3
2018-07-01T14:43:16.339Z,21.3
2018-07-01T14:43:36.603Z,21.3
2018-07-01T14:43:56.797Z,21.4
2018-07-01T14:44:17.488Z,21.4
2018-07-01T14:44:37.867Z,21.4
2018-07-01T14:44:58.121Z,21.5
2018-07-01T14:45:18.698Z,21.5
2018-07-01T14:45:38.948Z,21.5
2018-07-01T14:45:59.195Z,21.6
2018-07-01T14:46:19.444Z,21.6
2018-07-01T14:46:39.964Z,21.7
2018-07-01T14:47:00.369Z,21.7
2018-07-01T14:47:20.659Z,21.8
2018-07-01T14:47:41.009Z,21.8
2018-07-01T14:48:01.340Z,21.8
2018-07-01T14:48:21.533Z,21.9
2018-07-01T14:48:41.834Z,21.9
2018-07-01T14:49:02.263Z,22
2018-07-01T14:49:22.683Z,22
2018-07-01T14:49:43.207Z,22
2018-07-01T14:50:03.529Z,22.1
2018-07-01T14:50:23.757Z,22.2
2018-07-01T14:50:45.250Z,22.3
2018-07-01T14:51:05.615Z,22.4
2018-07-01T14:51:25.820Z,22.5
2018-07-01T14:51:46.132Z,22.5
2018-07-01T14:52:06.360Z,22.6
2018-07-01T14:52:26.721Z,22.7
2018-07-01T14:52:47.017Z,22.7
2018-07-01T14:53:07.312Z,22.8
2018-07-01T14:53:27.695Z,22.8
2018-07-01T14:53:47.972Z,22.7
2018-07-01T14:54:08.366Z,22.8
2018-07-01T14:54:30.322Z,22.9
2018-07-01T14:54:50.987Z,22.8
2018-07-01T14:55:11.358Z,22.8
2018-07-01T14:55:31.682Z,22.7
2018-07-01T14:55:52.003Z,22.7
2018-07-01T14:56:12.396Z,22.6
2018-07-01T14:56:32.740Z,22.6
2018-07-01T14:56:53.183Z,22.6
2018-07-01T14:57:13.449Z,22.6
2018-07-01T14:57:33.781Z,22.5
2018-07-01T14:57:54.259Z,22.6
2018-07-01T14:58:14.645Z,22.5
2018-07-01T14:58:34.928Z,22.5
2018-07-01T14:58:55.256Z,22.5
2018-07-01T14:59:15.463Z,22.4
2018-07-01T14:59:36.010Z,22.4
2018-07-01T14:59:56.498Z,22.4
2018-07-01T15:00:16.823Z,22.4
2018-07-01T15:00:37.104Z,22.4
2018-07-01T15:00:57.375Z,22.4
2018-07-01T15:01:17.770Z,22.3
2018-07-01T15:01:38.267Z,22.4
2018-07-01T15:01:58.471Z,22.3
2018-07-01T15:02:18.855Z,22.4
2018-07-01T15:02:39.212Z,22.4
2018-07-01T15:02:59.462Z,22.3
2018-07-01T15:03:19.937Z,22.2
2018-07-01T15:03:40.206Z,22.3
2018-07-01T15:04:00.703Z,22.3
2018-07-01T15:04:21.186Z,22.3
2018-07-01T15:04:41.502Z,22.2
2018-07-01T15:05:02.010Z,22.2
2018-07-01T15:05:22.442Z,22.2
2018-07-01T15:05:42.684Z,22.2
2018-07-01T15:06:03.044Z,22.2
2018-07-01T15:06:23.418Z,22.1
2018-07-01T15:06:43.674Z,22.2
2018-07-01T15:07:04.054Z,22.1
2018-07-01T15:07:24.346Z,22.1
2018-07-01T15:07:44.521Z,22.1
2018-07-01T15:08:04.975Z,22.2
2018-07-01T15:08:25.419Z,22.1
2018-07-01T15:08:45.787Z,22.1
2018-07-01T15:09:06.805Z,22.1
2018-07-01T15:09:27.100Z,22.1
2018-07-01T15:09:47.688Z,22.1
2018-07-01T15:10:08.090Z,22.1
2018-07-01T15:10:28.362Z,22.1
2018-07-01T15:10:48.675Z,22
2018-07-01T15:11:08.943Z,22
2018-07-01T15:11:30.205Z,22
2018-07-01T15:11:51.260Z,22
2018-07-01T15:12:11.562Z,22
2018-07-01T15:12:31.760Z,22.1
2018-07-01T15:12:52.104Z,22
2018-07-01T15:13:12.360Z,22
2018-07-01T15:13:33.190Z,22
2018-07-01T15:13:53.474Z,22
2018-07-01T15:14:13.883Z,21.9
2018-07-01T15:14:34.138Z,22
2018-07-01T15:14:54.585Z,22
2018-07-01T15:15:14.813Z,22
2018-07-01T15:15:35.012Z,21.9
2018-07-01T15:15:56.244Z,22
2018-07-01T15:16:17.122Z,22
2018-07-01T15:16:37.430Z,22
2018-07-01T15:16:57.819Z,22
2018-07-01T15:17:18.161Z,21.9
2018-07-01T15:17:38.626Z,21.9
2018-07-01T15:17:59.186Z,22
2018-07-01T15:18:19.571Z,21.9
2018-07-01T15:18:39.949Z,22
2018-07-01T15:19:00.198Z,22
2018-07-01T15:19:20.524Z,22
2018-07-01T15:19:40.882Z,22
2018-07-01T15:20:01.174Z,22.1
2018-07-01T15:20:21.499Z,22
2018-07-01T15:20:41.832Z,22.1
2018-07-01T15:21:02.157Z,22.1
2018-07-01T15:21:22.422Z,22.2
2018-07-01T15:21:42.804Z,22.2
2018-07-01T15:22:03.698Z,22.2
2018-07-01T15:22:23.968Z,22.3
2018-07-01T15:22:44.382Z,22.2
2018-07-01T15:23:04.639Z,22.2
2018-07-01T15:23:24.852Z,22.3
2018-07-01T15:23:45.089Z,22.4
2018-07-01T15:24:05.611Z,22.5
2018-07-01T15:24:26.048Z,22.5
2018-07-01T15:24:47.225Z,22.5
2018-07-01T15:25:07.230Z,22.6
2018-07-01T15:25:27.539Z,22.7
2018-07-01T15:25:47.804Z,22.8
2018-07-01T15:26:08.754Z,22.8
2018-07-01T15:26:29.138Z,22.9
2018-07-01T15:26:49.418Z,22.9
2018-07-01T15:27:09.669Z,22.9
2018-07-01T15:27:29.968Z,23
2018-07-01T15:27:50.183Z,23
2018-07-01T15:28:10.633Z,23.2
2018-07-01T15:28:30.851Z,23.2
2018-07-01T15:28:51.126Z,23.3
2018-07-01T15:29:11.531Z,23.3
2018-07-01T15:29:31.775Z,23.3
2018-07-01T15:29:52.093Z,23.3
2018-07-01T15:30:12.473Z,23.3
2018-07-01T15:30:32.874Z,23.2
2018-07-01T15:30:53.158Z,23.2
2018-07-01T15:31:13.523Z,23.2
2018-07-01T15:31:34.271Z,23.2
2018-07-01T15:31:54.519Z,23.1
2018-07-01T15:32:14.906Z,23.2
2018-07-01T15:32:35.267Z,23.1
2018-07-01T15:32:55.812Z,23.2
2018-07-01T15:33:16.069Z,23.1
2018-07-01T15:33:36.553Z,23.2
2018-07-01T15:33:56.824Z,23.1
2018-07-01T15:34:17.274Z,23.2
2018-07-01T15:34:37.564Z,23.1
2018-07-01T15:34:57.929Z,23.1
2018-07-01T15:35:18.466Z,23.1
2018-07-01T15:35:38.891Z,23
2018-07-01T15:35:59.291Z,23
2018-07-01T15:36:19.821Z,23.1
2018-07-01T15:36:40.350Z,23
2018-07-01T15:37:00.700Z,22.9
2018-07-01T15:37:21.076Z,22.9
2018-07-01T15:37:41.400Z,22.9
2018-07-01T15:38:01.696Z,22.8
2018-07-01T15:38:22.095Z,22.8
2018-07-01T15:38:42.429Z,22.8
2018-07-01T15:39:02.706Z,22.8
2018-07-01T15:39:22.936Z,22.7
2018-07-01T15:39:43.229Z,22.8
2018-07-01T15:40:03.637Z,22.8
2018-07-01T15:40:24.196Z,22.7
2018-07-01T15:40:44.410Z,22.6
2018-07-01T15:41:04.694Z,22.7
2018-07-01T15:41:24.882Z,22.6
2018-07-01T15:41:45.320Z,22.7
2018-07-01T15:42:05.718Z,22.5
2018-07-01T15:42:26.124Z,22.5
2018-07-01T15:42:46.387Z,22.5
2018-07-01T15:43:06.645Z,22.6
2018-07-01T15:43:26.954Z,22.4
2018-07-01T15:43:47.215Z,22.4
2018-07-01T15:44:07.727Z,22.4
2018-07-01T15:44:28.016Z,22.4
2018-07-01T15:44:48.343Z,22.4
2018-07-01T15:45:08.657Z,22.3
2018-07-01T15:45:28.926Z,22.3
2018-07-01T15:45:49.373Z,22.2
2018-07-01T15:46:09.729Z,22.3
2018-07-01T15:46:30.069Z,22.2
2018-07-01T15:46:50.592Z,22.3
2018-07-01T15:47:10.911Z,22.3
2018-07-01T15:47:31.158Z,22.3
2018-07-01T15:47:51.366Z,22.2
2018-07-01T15:48:11.671Z,22.1
2018-07-01T15:48:32.124Z,22.1
2018-07-01T15:48:52.562Z,22.1
2018-07-01T15:49:12.981Z,22.1
2018-07-01T15:49:33.242Z,22.1
2018-07-01T15:49:53.741Z,22.1
2018-07-01T15:50:14.111Z,22.1
2018-07-01T15:50:34.404Z,22.1
2018-07-01T15:50:54.720Z,22.1
2018-07-01T15:51:14.941Z,22
2018-07-01T15:51:35.297Z,22
2018-07-01T15:51:55.605Z,22
2018-07-01T15:52:15.888Z,21.9
2018-07-01T15:52:36.134Z,21.9
2018-07-01T15:52:56.511Z,21.9
2018-07-01T15:53:16.876Z,21.9
2018-07-01T15:53:37.219Z,21.8
2018-07-01T15:53:57.633Z,21.9
2018-07-01T15:54:18.016Z,21.8
2018-07-01T15:54:38.298Z,21.8
2018-07-01T15:54:58.636Z,21.8
2018-07-01T15:55:18.861Z,21.8
2018-07-01T15:55:39.306Z,21.9
2018-07-01T15:55:59.601Z,21.8
2018-07-01T15:56:19.899Z,21.8
2018-07-01T15:56:40.203Z,21.9
2018-07-01T15:57:00.576Z,21.9
2018-07-01T15:57:20.938Z,21.9
2018-07-01T15:57:41.319Z,22
2018-07-01T15:58:01.670Z,22
2018-07-01T15:58:22.065Z,22.1
2018-07-01T15:58:42.336Z,22.3
2018-07-01T15:59:02.692Z,22.2
2018-07-01T15:59:23.004Z,22.4
2018-07-01T15:59:43.456Z,22.5
2018-07-01T16:00:03.862Z,22.6
2018-07-01T16:00:24.161Z,22.8
2018-07-01T16:00:44.539Z,22.8
2018-07-01T16:01:04.849Z,22.9
2018-07-01T16:01:25.160Z,22.9
2018-07-01T16:01:45.372Z,23
2018-07-01T16:02:05.698Z,22.9
2018-07-01T16:02:26.083Z,22.9
2018-07-01T16:02:46.225Z,23
2018-07-01T16:03:06.524Z,23
2018-07-01T16:03:27.002Z,23
2018-07-01T16:03:47.394Z,23
2018-07-01T16:04:07.792Z,22.9
2018-07-01T16:04:28.129Z,23
2018-07-01T16:04:48.416Z,23
2018-07-01T16:05:08.879Z,23
2018-07-01T16:05:29.300Z,22.9
2018-07-01T16:05:49.620Z,23
2018-07-01T16:06:09.962Z,23
2018-07-01T16:06:31.268Z,22.9
2018-07-01T16:06:51.671Z,22.9
2018-07-01T16:07:12.118Z,22.9
2018-07-01T16:07:32.386Z,22.9
2018-07-01T16:07:52.839Z,22.9
2018-07-01T16:08:13.470Z,22.9
2018-07-01T16:08:33.810Z,22.9
2018-07-01T16:08:54.114Z,22.8
2018-07-01T16:09:14.520Z,22.8
2018-07-01T16:09:34.773Z,22.9
2018-07-01T16:09:55.081Z,22.8
2018-07-01T16:10:15.422Z,22.9
2018-07-01T16:10:35.825Z,22.8
2018-07-01T16:10:56.094Z,22.7
2018-07-01T16:11:16.468Z,22.8
2018-07-01T16:11:36.801Z,22.7
2018-07-01T16:11:57.159Z,22.6
2018-07-01T16:12:17.321Z,22.7
2018-07-01T16:12:37.771Z,22.6
2018-07-01T16:12:58.332Z,22.6
2018-07-01T16:13:18.657Z,22.5
2018-07-01T16:13:38.982Z,22.5
2018-07-01T16:13:59.398Z,22.5
2018-07-01T16:14:20.343Z,22.5
2018-07-01T16:14:40.730Z,22.5
2018-07-01T16:15:01.124Z,22.4
2018-07-01T16:15:21.541Z,22.4
2018-07-01T16:15:41.825Z,22.4
2018-07-01T16:16:02.261Z,22.2
2018-07-01T16:16:22.696Z,22.2
2018-07-01T16:16:43.273Z,22.2
2018-07-01T16:17:03.778Z,22.3
2018-07-01T16:17:24.160Z,22.1
2018-07-01T16:17:44.488Z,22.1
2018-07-01T16:18:05.808Z,22.1
2018-07-01T16:18:26.067Z,22.1
2018-07-01T16:18:46.325Z,22
2018-07-01T16:19:06.605Z,22
2018-07-01T16:19:26.787Z,22
2018-07-01T16:19:47.120Z,21.9
2018-07-01T16:20:07.392Z,21.8
2018-07-01T16:20:27.652Z,21.8
2018-07-01T16:20:47.800Z,21.8
2018-07-01T16:21:08.288Z,21.8
2018-07-01T16:21:28.614Z,21.8
2018-07-01T16:21:49.231Z,21.7
2018-07-01T16:22:09.406Z,21.7
2018-07-01T16:22:29.639Z,21.6
2018-07-01T16:22:50.088Z,21.7
2018-07-01T16:23:10.470Z,21.6
2018-07-01T16:23:31.028Z,21.6
2018-07-01T16:23:51.358Z,21.6
2018-07-01T16:24:11.773Z,21.6
2018-07-01T16:24:32.204Z,21.6
2018-07-01T16:24:52.557Z,21.5
2018-07-01T16:25:12.989Z,21.6
2018-07-01T16:25:33.205Z,21.5
2018-07-01T16:25:53.370Z,21.6
2018-07-01T16:26:13.868Z,21.5
2018-07-01T16:26:34.113Z,21.5
2018-07-01T16:26:54.339Z,21.5
2018-07-01T16:27:14.594Z,21.5
2018-07-01T16:27:34.897Z,21.5
2018-07-01T16:27:55.176Z,21.5
2018-07-01T16:28:15.424Z,21.5
2018-07-01T16:28:35.622Z,21.5
2018-07-01T16:28:56.199Z,21.4
2018-07-01T16:29:16.761Z,21.4
2018-07-01T16:29:36.983Z,21.5
2018-07-01T16:29:57.420Z,21.3
2018-07-01T16:30:17.643Z,21.3
2018-07-01T16:30:37.796Z,21.3
2018-07-01T16:30:58.031Z,21.4
2018-07-01T16:31:18.458Z,21.3
2018-07-01T16:31:38.700Z,21.3
2018-07-01T16:31:59.049Z,21.3
2018-07-01T16:32:19.506Z,21.3
2018-07-01T16:32:40.909Z,21.3
2018-07-01T16:33:01.247Z,21.2
2018-07-01T16:33:21.657Z,21.3
2018-07-01T16:33:41.953Z,21.2
2018-07-01T16:34:02.288Z,21.1
2018-07-01T16:34:22.504Z,21.1
2018-07-01T16:34:42.802Z,21.2
2018-07-01T16:35:03.796Z,21.1
2018-07-01T16:35:24.367Z,21.2
2018-07-01T16:35:44.704Z,21.1
2018-07-01T16:36:04.934Z,21
2018-07-01T16:36:25.255Z,21
2018-07-01T16:36:45.570Z,21
2018-07-01T16:37:05.878Z,21
2018-07-01T16:37:26.256Z,21
2018-07-01T16:37:46.635Z,21
2018-07-01T16:38:07.108Z,20.9
2018-07-01T16:38:27.593Z,21
2018-07-01T16:38:48.906Z,21
2018-07-01T16:39:09.164Z,21
2018-07-01T16:39:29.588Z,21
2018-07-01T16:39:50.024Z,20.9
2018-07-01T16:40:10.333Z,20.9
2018-07-01T16:40:30.790Z,20.9
2018-07-01T16:40:51.610Z,20.8
2018-07-01T16:41:12.019Z,20.8
2018-07-01T16:41:32.397Z,20.9
2018-07-01T16:41:52.677Z,20.9
2018-07-01T16:42:12.941Z,20.8
2018-07-01T16:42:33.906Z,20.8
2018-07-01T16:42:54.259Z,20.8
2018-07-01T16:43:14.690Z,20.7
2018-07-01T16:43:35.098Z,20.7
2018-07-01T16:43:55.496Z,20.7
2018-07-01T16:44:15.848Z,20.7
2018-07-01T16:44:36.117Z,20.8
2018-07-01T16:44:56.555Z,20.7
2018-07-01T16:45:17.015Z,20.7
2018-07-01T16:45:37.358Z,20.7
2018-07-01T16:45:57.661Z,20.6
2018-07-01T16:46:17.985Z,20.6
2018-07-01T16:46:38.343Z,20.6
2018-07-01T16:46:58.723Z,20.7
2018-07-01T16:47:19.022Z,20.5
2018-07-01T16:47:39.806Z,20.5
2018-07-01T16:48:00.172Z,20.5
2018-07-01T16:48:20.543Z,20.6
2018-07-01T16:48:40.971Z,20.5
2018-07-01T16:49:01.358Z,20.5
2018-07-01T16:49:21.744Z,20.5
2018-07-01T16:49:42.298Z,20.5
2018-07-01T16:50:03.451Z,20.5
2018-07-01T16:50:23.836Z,20.5
2018-07-01T16:50:44.141Z,20.5
2018-07-01T16:51:05.404Z,20.6
2018-07-01T16:51:25.861Z,20.5
2018-07-01T16:51:46.110Z,20.5
2018-07-01T16:52:06.464Z,20.5
2018-07-01T16:52:26.861Z,20.5
2018-07-01T16:52:47.740Z,20.5
2018-07-01T16:53:07.957Z,20.5
2018-07-01T16:53:28.466Z,20.5
2018-07-01T16:53:48.787Z,20.5
2018-07-01T16:54:09.313Z,20.6
2018-07-01T16:54:29.676Z,20.6
2018-07-01T16:54:49.997Z,20.5
2018-07-01T16:55:10.353Z,20.5
2018-07-01T16:55:30.693Z,20.5
2018-07-01T16:55:51.054Z,20.5
2018-07-01T16:56:11.414Z,20.5
2018-07-01T16:56:31.739Z,20.5
2018-07-01T16:56:52.280Z,20.5
2018-07-01T16:57:12.564Z,20.5
2018-07-01T16:57:32.936Z,20.5
2018-07-01T16:57:53.367Z,20.5
2018-07-01T16:58:13.560Z,20.4
2018-07-01T16:58:34.604Z,20.4
2018-07-01T16:58:54.915Z,20.3
2018-07-01T16:59:15.094Z,20.4
2018-07-01T16:59:35.350Z,20.4
2018-07-01T16:59:55.637Z,20.4
2018-07-01T17:00:15.983Z,20.4
2018-07-01T17:00:36.261Z,20.4
2018-07-01T17:00:57.561Z,20.3
2018-07-01T17:01:17.896Z,20.3
2018-07-01T17:01:38.816Z,20.2
2018-07-01T17:01:59.101Z,20.3
2018-07-01T17:02:19.532Z,20.2
2018-07-01T17:02:39.715Z,20.2
2018-07-01T17:03:00.059Z,20.3
2018-07-01T17:03:20.456Z,20.2
2018-07-01T17:03:40.826Z,20.2
2018-07-01T17:04:01.177Z,20.2
2018-07-01T17:04:21.536Z,20.2
2018-07-01T17:04:41.811Z,20.1
2018-07-01T17:05:02.065Z,20.1
2018-07-01T17:05:22.464Z,20.1
2018-07-01T17:05:43.056Z,20.1
2018-07-01T17:06:03.339Z,20
2018-07-01T17:06:23.643Z,20
2018-07-01T17:06:43.976Z,20
2018-07-01T17:07:04.304Z,20.1
2018-07-01T17:07:24.668Z,20
2018-07-01T17:07:45.215Z,20
2018-07-01T17:08:05.553Z,20.1
2018-07-01T17:08:25.870Z,20.1
2018-07-01T17:08:46.184Z,20
2018-07-01T17:09:06.413Z,20
2018-07-01T17:09:26.633Z,19.9
2018-07-01T17:09:46.889Z,20
2018-07-01T17:10:07.123Z,19.9
2018-07-01T17:10:27.594Z,20
2018-07-01T17:10:47.948Z,20
2018-07-01T17:11:08.415Z,20
2018-07-01T17:11:28.805Z,20
2018-07-01T17:11:49.024Z,20
2018-07-01T17:12:09.421Z,19.9
2018-07-01T17:12:29.996Z,20
2018-07-01T17:12:50.233Z,20
2018-07-01T17:13:10.437Z,19.9
2018-07-01T17:13:30.729Z,20
2018-07-01T17:13:51.216Z,19.9
2018-07-01T17:14:11.521Z,19.9
2018-07-01T17:14:31.928Z,19.9
2018-07-01T17:14:52.281Z,19.8
2018-07-01T17:15:12.691Z,19.8
2018-07-01T17:15:32.976Z,19.8
2018-07-01T17:15:53.298Z,19.9
2018-07-01T17:16:13.530Z,19.9
2018-07-01T17:16:34.804Z,19.8
2018-07-01T17:16:55.234Z,19.8
2018-07-01T17:17:15.607Z,19.9
2018-07-01T17:17:35.899Z,19.8
2018-07-01T17:17:56.270Z,19.9
2018-07-01T17:18:16.555Z,19.8
2018-07-01T17:18:37.351Z,19.8
2018-07-01T17:18:57.688Z,19.8
2018-07-01T17:19:17.940Z,19.8
2018-07-01T17:19:38.320Z,19.8
2018-07-01T17:19:58.716Z,19.8
2018-07-01T17:20:19.014Z,19.7
2018-07-01T17:20:39.482Z,19.8
2018-07-01T17:20:59.806Z,19.7
2018-07-01T17:21:20.101Z,19.8
2018-07-01T17:21:40.474Z,19.6
2018-07-01T17:22:00.763Z,19.7
2018-07-01T17:22:21.284Z,19.7
2018-07-01T17:22:41.456Z,19.7
2018-07-01T17:23:01.881Z,19.6
2018-07-01T17:23:22.211Z,19.8
2018-07-01T17:23:42.386Z,19.7
2018-07-01T17:24:02.610Z,19.6
2018-07-01T17:24:22.940Z,19.8
2018-07-01T17:24:43.308Z,19.8
2018-07-01T17:25:03.780Z,19.7
2018-07-01T17:25:24.159Z,19.6
2018-07-01T17:25:44.395Z,19.7
2018-07-01T17:26:04.706Z,19.7
2018-07-01T17:26:25.927Z,19.6
2018-07-01T17:26:45.916Z,19.6
2018-07-01T17:27:06.949Z,19.7
2018-07-01T17:27:27.259Z,19.6
2018-07-01T17:27:47.724Z,19.6
2018-07-01T17:28:08.832Z,19.6
2018-07-01T17:28:29.174Z,19.6
2018-07-01T17:28:49.433Z,19.7
2018-07-01T17:29:09.713Z,19.7
2018-07-01T17:29:30.902Z,19.6
2018-07-01T17:29:51.941Z,19.6
2018-07-01T17:30:12.450Z,19.6
2018-07-01T17:30:32.810Z,19.6
2018-07-01T17:30:53.062Z,19.6
2018-07-01T17:31:13.307Z,19.6
2018-07-01T17:31:33.723Z,19.6
2018-07-01T17:31:54.141Z,19.5
2018-07-01T17:32:14.612Z,19.5
2018-07-01T17:32:35.023Z,19.6
2018-07-01T17:32:55.492Z,19.6
2018-07-01T17:33:15.916Z,19.5
2018-07-01T17:33:36.254Z,19.5
2018-07-01T17:33:56.627Z,19.5
2018-07-01T17:34:16.899Z,19.6
2018-07-01T17:34:37.123Z,19.5
2018-07-01T17:34:57.468Z,19.5
2018-07-01T17:35:17.754Z,19.6
2018-07-01T17:35:38.156Z,19.5
2018-07-01T17:35:58.501Z,19.4
2018-07-01T17:36:18.712Z,19.5
2018-07-01T17:36:38.970Z,19.5
2018-07-01T17:36:59.187Z,19.5
2018-07-01T17:37:19.621Z,19.4
2018-07-01T17:37:39.905Z,19.5
2018-07-01T17:38:00.264Z,19.5
2018-07-01T17:38:20.532Z,19.5
2018-07-01T17:38:40.889Z,19.4
2018-07-01T17:39:01.081Z,19.5
2018-07-01T17:39:21.422Z,19.4
2018-07-01T17:39:41.698Z,19.4
2018-07-01T17:40:02.075Z,19.4
2018-07-01T17:40:22.354Z,19.4
2018-07-01T17:40:42.760Z,19.4
2018-07-01T17:41:03.170Z,19.4
2018-07-01T17:41:23.687Z,19.4
2018-07-01T17:41:43.983Z,19.4
2018-07-01T17:42:04.315Z,19.4
2018-07-01T17:42:24.677Z,19.4
2018-07-01T17:42:45.061Z,19.4
2018-07-01T17:43:06.270Z,19.4
2018-07-01T17:43:26.568Z,19.5
2018-07-01T17:43:46.838Z,19.3
2018-07-01T17:44:07.169Z,19.4
2018-07-01T17:44:27.440Z,19.5
2018-07-01T17:44:47.742Z,19.4
2018-07-01T17:45:08.152Z,19.4
2018-07-01T17:45:28.555Z,19.4
2018-07-01T17:45:49.621Z,19.3
2018-07-01T17:46:09.887Z,19.4
2018-07-01T17:46:30.185Z,19.4
2018-07-01T17:46:50.625Z,19.4
2018-07-01T17:47:11.007Z,19.4
2018-07-01T17:47:31.436Z,19.3
2018-07-01T17:47:51.682Z,19.4
2018-07-01T17:48:12.023Z,19.4
2018-07-01T17:48:32.369Z,19.4
2018-07-01T17:48:52.546Z,19.4
2018-07-01T17:49:12.934Z,19.4
2018-07-01T17:49:33.369Z,19.3
2018-07-01T17:49:53.770Z,19.4
2018-07-01T17:50:14.934Z,19.4
2018-07-01T17:50:35.271Z,19.3
2018-07-01T17:50:55.599Z,19.3
2018-07-01T17:51:15.992Z,19.2
2018-07-01T17:51:36.262Z,19.4
2018-07-01T17:51:56.540Z,19.3
2018-07-01T17:52:16.993Z,19.3
2018-07-01T17:52:37.346Z,19.2
2018-07-01T17:52:57.701Z,19.4
2018-07-01T17:53:18.106Z,19.3
2018-07-01T17:53:38.480Z,19.3
2018-07-01T17:53:59.026Z,19.2
2018-07-01T17:54:19.586Z,19.3
2018-07-01T17:54:39.853Z,19.3
2018-07-01T17:55:00.137Z,19.3
2018-07-01T17:55:20.366Z,19.3
2018-07-01T17:55:40.535Z,19.3
2018-07-01T17:56:00.897Z,19.2
2018-07-01T17:56:21.173Z,19.3
2018-07-01T17:56:41.548Z,19.3
2018-07-01T17:57:02.812Z,19.2
2018-07-01T17:57:23.112Z,19.2
2018-07-01T17:57:43.389Z,19.2
2018-07-01T17:58:03.799Z,19.2
2018-07-01T17:58:24.081Z,19.2
2018-07-01T17:58:44.346Z,19.2
2018-07-01T17:59:04.596Z,19.2
2018-07-01T17:59:24.937Z,19.1
2018-07-01T17:59:45.235Z,19.1
2018-07-01T18:00:05.629Z,19.1
2018-07-01T18:00:25.919Z,19
2018-07-01T18:00:46.384Z,19.1
2018-07-01T18:01:06.656Z,19.1
2018-07-01T18:01:26.949Z,19.1
2018-07-01T18:01:47.357Z,19.1
2018-07-01T18:02:07.526Z,19.1
2018-07-01T18:02:28.000Z,19.1
2018-07-01T18:02:48.443Z,19.1
2018-07-01T18:03:08.964Z,19.1
2018-07-01T18:03:29.115Z,19.1
2018-07-01T18:03:49.493Z,19.1
2018-07-01T18:04:09.830Z,19.1
2018-07-01T18:04:30.187Z,19.1
2018-07-01T18:04:50.484Z,19.2
2018-07-01T18:05:10.964Z,19.1
2018-07-01T18:05:31.329Z,19.1
2018-07-01T18:05:51.765Z,19.1
2018-07-01T18:06:12.058Z,19.1
2018-07-01T18:06:32.307Z,19.1
2018-07-01T18:06:52.664Z,19.1
2018-07-01T18:07:12.960Z,19.1
2018-07-01T18:07:33.553Z,19.1
2018-07-01T18:07:53.952Z,19.1
2018-07-01T18:08:14.344Z,19.2
2018-07-01T18:08:34.618Z,19.1
2018-07-01T18:08:55.723Z,19.2
2018-07-01T18:09:16.337Z,19.1
2018-07-01T18:09:37.713Z,19.2
2018-07-01T18:09:58.040Z,19.1
2018-07-01T18:10:18.376Z,19.2
2018-07-01T18:10:38.752Z,19.1
2018-07-01T18:11:00.091Z,19.2
2018-07-01T18:11:20.353Z,19.1
2018-07-01T18:11:40.939Z,19.1
2018-07-01T18:12:02.276Z,19.1
2018-07-01T18:12:24.235Z,19.1
2018-07-01T18:12:49.653Z,19.1
2018-07-01T18:13:13.903Z,19.1
2018-07-01T18:13:35.529Z,19.1
2018-07-01T18:13:56.522Z,19.1
2018-07-01T18:14:17.547Z,19.1
2018-07-01T18:14:40.406Z,19.2
2018-07-01T18:15:03.209Z,19.1
2018-07-01T18:15:24.262Z,19.1
2018-07-01T18:15:46.062Z,19.1
2018-07-01T18:16:07.904Z,19.1
2018-07-01T18:16:28.567Z,19.1
2018-07-01T18:16:48.939Z,19.1
2018-07-01T18:17:09.328Z,19.1
2018-07-01T18:17:29.680Z,19.2
2018-07-01T18:17:50.014Z,19.1
2018-07-01T18:18:11.675Z,19.1
2018-07-01T18:18:32.484Z,19.2
2018-07-01T18:18:53.022Z,19.1
2018-07-01T18:19:13.396Z,19.2
2018-07-01T18:19:33.730Z,19.2
2018-07-01T18:19:54.236Z,19.2
2018-07-01T18:20:14.578Z,19.1
2018-07-01T18:20:34.881Z,19.2
2018-07-01T18:20:55.510Z,19.2
2018-07-01T18:22:09.759Z,19.1
2018-07-01T18:23:18.237Z,19.1
2018-07-01T18:24:48.924Z,19.2
2018-07-01T18:25:15.165Z,19.1
2018-07-01T18:25:35.500Z,19.1
2018-07-01T18:25:55.860Z,19.1
2018-07-01T18:26:16.347Z,19.1
2018-07-01T18:26:37.000Z,19.1
2018-07-01T18:26:57.960Z,19.1
2018-07-01T18:27:19.632Z,19.1
2018-07-01T18:27:40.921Z,19.1
2018-07-01T18:28:22.702Z,19.1
2018-07-01T18:28:55.768Z,19.1
2018-07-01T18:29:18.699Z,19.1
2018-07-01T18:29:35.672Z,19.1
2018-07-01T18:29:55.948Z,19.2
2018-07-01T18:30:16.308Z,19.1
2018-07-01T18:30:36.665Z,19.2
2018-07-01T18:30:56.932Z,19.1
2018-07-01T18:31:17.286Z,19.1
2018-07-01T18:31:37.446Z,19.1
2018-07-01T18:31:57.960Z,19.1
2018-07-01T18:32:18.274Z,19.1
2018-07-01T18:32:38.677Z,19.1
2018-07-01T18:32:59.082Z,19.1
2018-07-01T18:33:19.283Z,19.1
2018-07-01T18:33:39.558Z,19.1
2018-07-01T18:33:59.896Z,19.1
2018-07-01T18:34:20.237Z,19.1
2018-07-01T18:34:40.548Z,19.2
2018-07-01T18:35:00.831Z,19.2
2018-07-01T18:35:21.235Z,19.1
2018-07-01T18:35:41.524Z,19.2
2018-07-01T18:36:01.823Z,19.1
2018-07-01T18:36:22.109Z,19
2018-07-01T18:36:42.438Z,19.1
2018-07-01T18:37:02.678Z,19
2018-07-01T18:37:23.459Z,19
2018-07-01T18:37:43.840Z,18.9
2018-07-01T18:38:04.226Z,19
2018-07-01T18:38:25.463Z,19
2018-07-01T18:38:45.797Z,18.9
2018-07-01T18:39:07.070Z,18.9
2018-07-01T18:39:27.285Z,19.1
2018-07-01T18:39:48.118Z,18.9
2018-07-01T18:40:09.553Z,18.9
2018-07-01T18:40:29.879Z,19
2018-07-01T18:40:50.725Z,18.9
2018-07-01T18:41:10.484Z,18.9
2018-07-01T18:41:30.666Z,18.9
2018-07-01T18:41:50.968Z,18.9
2018-07-01T18:42:11.277Z,18.9
2018-07-01T18:42:31.489Z,18.9
2018-07-01T18:42:51.834Z,18.9
2018-07-01T18:43:12.145Z,18.9
2018-07-01T18:43:32.511Z,18.9
2018-07-01T18:43:52.882Z,18.9
2018-07-01T18:44:13.162Z,18.8
2018-07-01T18:44:33.534Z,18.9
2018-07-01T18:44:53.796Z,18.8
2018-07-01T18:45:14.112Z,18.9
2018-07-01T18:45:34.414Z,18.8
2018-07-01T18:45:54.790Z,18.9
2018-07-01T18:46:15.173Z,18.8
2018-07-01T18:46:35.595Z,18.8
2018-07-01T18:46:55.997Z,18.8
2018-07-01T18:47:16.536Z,18.8
2018-07-01T18:47:36.794Z,18.8
2018-07-01T18:47:57.233Z,18.8
2018-07-01T18:48:17.478Z,18.7
2018-07-01T18:48:37.760Z,18.7
2018-07-01T18:48:58.043Z,18.7
2018-07-01T18:49:18.414Z,18.7
2018-07-01T18:49:38.726Z,18.7
2018-07-01T18:49:58.988Z,18.7
2018-07-01T18:50:19.294Z,18.7
2018-07-01T18:50:39.690Z,18.7
2018-07-01T18:51:00.020Z,18.7
2018-07-01T18:51:21.352Z,18.7
2018-07-01T18:51:41.609Z,18.7
2018-07-01T18:52:02.057Z,18.6
2018-07-01T18:52:22.339Z,18.7
2018-07-01T18:52:42.827Z,18.6
2018-07-01T18:53:03.172Z,18.6
2018-07-01T18:53:23.564Z,18.6
2018-07-01T18:53:43.789Z,18.6
2018-07-01T18:54:04.257Z,18.6
2018-07-01T18:54:24.618Z,18.6
2018-07-01T18:54:44.894Z,18.6
2018-07-01T18:55:05.218Z,18.6
2018-07-01T18:55:25.443Z,18.4
2018-07-01T18:55:45.649Z,18.6
2018-07-01T18:56:05.896Z,18.6
2018-07-01T18:56:26.174Z,18.6
2018-07-01T18:56:46.458Z,18.5
2018-07-01T18:57:06.705Z,18.5
2018-07-01T18:57:27.010Z,18.6
2018-07-01T18:57:47.334Z,18.5
2018-07-01T18:58:07.539Z,18.5
2018-07-01T18:58:27.878Z,18.5
2018-07-01T18:58:48.214Z,18.4
2018-07-01T18:59:09.458Z,18.4
2018-07-01T18:59:29.730Z,18.5
2018-07-01T18:59:49.719Z,18.4
2018-07-01T19:00:10.148Z,18.5
2018-07-01T19:00:30.620Z,18.4
2018-07-01T19:00:50.936Z,18.4
2018-07-01T19:01:11.320Z,18.3
2018-07-01T19:01:31.571Z,18.3
2018-07-01T19:01:51.917Z,18.3